sensor_id;sensor_type;location;lat;lon;timestamp;pressure;altitude;pressure_sealevel;temperature;humidity
75424;BME280;64005;55.160;36.002;2023-07-31T00:01:15;98408.38;;;14.42;60.28
75424;BME280;64005;55.160;36.002;2023-07-31T00:03:42;98409.13;;;14.39;60.34
75424;BME280;64005;55.160;36.002;2023-07-31T00:06:11;98412.34;;;14.41;60.60
75424;BME280;64005;55.160;36.002;2023-07-31T00:08:39;98416.38;;;14.43;60.52
75424;BME280;64005;55.160;36.002;2023-07-31T00:11:06;98407.59;;;14.45;60.44
75424;BME280;64005;55.160;36.002;2023-07-31T00:13:34;98410.41;;;14.45;60.74
75424;BME280;64005;55.160;36.002;2023-07-31T00:16:01;98413.19;;;14.45;60.88
75424;BME280;64005;55.160;36.002;2023-07-31T00:18:29;98404.44;;;14.46;61.10
75424;BME280;64005;55.160;36.002;2023-07-31T00:20:56;98409.22;;;14.46;60.92
75424;BME280;64005;55.160;36.002;2023-07-31T00:23:26;98406.44;;;14.46;61.11
75424;BME280;64005;55.160;36.002;2023-07-31T00:25:54;98404.44;;;14.46;61.25
75424;BME280;64005;55.160;36.002;2023-07-31T00:28:21;98406.88;;;14.48;61.24
75424;BME280;64005;55.160;36.002;2023-07-31T00:30:48;98407.25;;;14.46;61.33
75424;BME280;64005;55.160;36.002;2023-07-31T00:33:16;98408.03;;;14.47;61.61
75424;BME280;64005;55.160;36.002;2023-07-31T00:35:43;98413.28;;;14.48;61.44
75424;BME280;64005;55.160;36.002;2023-07-31T00:38:11;98408.09;;;14.50;61.70
75424;BME280;64005;55.160;36.002;2023-07-31T00:40:40;98408.09;;;14.50;61.74
75424;BME280;64005;55.160;36.002;2023-07-31T00:43:07;98405.28;;;14.50;61.59
75424;BME280;64005;55.160;36.002;2023-07-31T00:45:35;98418.47;;;14.50;61.79
75424;BME280;64005;55.160;36.002;2023-07-31T00:48:03;98412.88;;;14.50;61.93
75424;BME280;64005;55.160;36.002;2023-07-31T00:50:33;98402.09;;;14.48;61.92
75424;BME280;64005;55.160;36.002;2023-07-31T00:53:02;98409.28;;;14.49;61.90
75424;BME280;64005;55.160;36.002;2023-07-31T00:55:29;98407.28;;;14.50;61.96
75424;BME280;64005;55.160;36.002;2023-07-31T00:57:58;98416.13;;;14.52;62.04
75424;BME280;64005;55.160;36.002;2023-07-31T01:00:25;98401.31;;;14.51;61.85
75424;BME280;64005;55.160;36.002;2023-07-31T01:02:53;98406.91;;;14.51;61.72
75424;BME280;64005;55.160;36.002;2023-07-31T01:05:39;98400.78;;;14.42;61.52
75424;BME280;64005;55.160;36.002;2023-07-31T01:08:12;98406.06;;;14.47;61.71
75424;BME280;64005;55.160;36.002;2023-07-31T01:10:48;98403.59;;;14.42;61.85
75424;BME280;64005;55.160;36.002;2023-07-31T01:13:18;98415.56;;;14.43;61.93
75424;BME280;64005;55.160;36.002;2023-07-31T01:15:46;98414.34;;;14.40;62.13
75424;BME280;64005;55.160;36.002;2023-07-31T01:18:13;98405.84;;;14.37;62.04
75424;BME280;64005;55.160;36.002;2023-07-31T01:24:14;98406.53;;;14.30;61.93
75424;BME280;64005;55.160;36.002;2023-07-31T01:26:53;98406.50;;;14.26;62.02
75424;BME280;64005;55.160;36.002;2023-07-31T01:29:40;98416.06;;;14.25;61.84
75424;BME280;64005;55.160;36.002;2023-07-31T01:32:10;98414.44;;;14.24;62.03
75424;BME280;64005;55.160;36.002;2023-07-31T01:34:39;98414.44;;;14.24;62.00
75424;BME280;64005;55.160;36.002;2023-07-31T01:40:16;98405.69;;;14.26;62.21
75424;BME280;64005;55.160;36.002;2023-07-31T01:42:45;98404.50;;;14.27;62.16
75424;BME280;64005;55.160;36.002;2023-07-31T01:45:13;98412.56;;;14.32;62.14
75424;BME280;64005;55.160;36.002;2023-07-31T01:47:40;98406.97;;;14.32;62.41
75424;BME280;64005;55.160;36.002;2023-07-31T01:50:09;98407.41;;;14.34;62.29
75424;BME280;64005;55.160;36.002;2023-07-31T01:52:36;98411.03;;;14.35;62.36
75424;BME280;64005;55.160;36.002;2023-07-31T01:55:04;98409.03;;;14.35;62.60
75424;BME280;64005;55.160;36.002;2023-07-31T01:57:32;98414.25;;;14.37;62.69
75424;BME280;64005;55.160;36.002;2023-07-31T02:00:01;98416.22;;;14.36;62.66
75424;BME280;64005;55.160;36.002;2023-07-31T02:02:36;98410.63;;;14.36;62.83
75424;BME280;64005;55.160;36.002;2023-07-31T02:05:04;98397.91;;;14.39;63.05
75424;BME280;64005;55.160;36.002;2023-07-31T02:07:32;98401.53;;;14.39;62.99
75424;BME280;64005;55.160;36.002;2023-07-31T02:09:59;98405.94;;;14.40;63.28
75424;BME280;64005;55.160;36.002;2023-07-31T02:12:27;98398.78;;;14.43;63.31
75424;BME280;64005;55.160;36.002;2023-07-31T02:14:56;98403.25;;;14.47;63.39
75424;BME280;64005;55.160;36.002;2023-07-31T02:17:31;98408.53;;;14.52;63.47
75424;BME280;64005;55.160;36.002;2023-07-31T02:19:58;98408.19;;;14.57;63.46
75424;BME280;64005;55.160;36.002;2023-07-31T02:22:26;98408.69;;;14.63;63.71
75424;BME280;64005;55.160;36.002;2023-07-31T02:25:17;98402.72;;;14.64;63.17
75424;BME280;64005;55.160;36.002;2023-07-31T02:27:56;98407.19;;;14.69;63.98
75424;BME280;64005;55.160;36.002;2023-07-31T02:30:23;98412.47;;;14.74;64.06
75424;BME280;64005;55.160;36.002;2023-07-31T02:32:53;98404.53;;;14.80;64.28
75424;BME280;64005;55.160;36.002;2023-07-31T02:35:20;98408.25;;;14.87;64.51
75424;BME280;64005;55.160;36.002;2023-07-31T02:38:05;98406.34;;;14.95;63.96
75424;BME280;64005;55.160;36.002;2023-07-31T02:40:33;98411.72;;;15.07;64.53
75424;BME280;64005;55.160;36.002;2023-07-31T02:43:01;98410.66;;;15.19;64.79
75424;BME280;64005;55.160;36.002;2023-07-31T02:45:37;98404.38;;;15.29;64.82
75424;BME280;64005;55.160;36.002;2023-07-31T02:48:06;98414.16;;;15.42;65.05
75424;BME280;64005;55.160;36.002;2023-07-31T02:50:33;98403.91;;;15.53;65.02
75424;BME280;64005;55.160;36.002;2023-07-31T02:53:03;98404.00;;;15.64;65.12
75424;BME280;64005;55.160;36.002;2023-07-31T02:55:31;98412.09;;;15.72;65.08
75424;BME280;64005;55.160;36.002;2023-07-31T02:58:29;98411.81;;;15.81;64.55
75424;BME280;64005;55.160;36.002;2023-07-31T03:07:39;98406.81;;;16.04;65.02
75424;BME280;64005;55.160;36.002;2023-07-31T03:10:29;98405.66;;;16.09;64.26
75424;BME280;64005;55.160;36.002;2023-07-31T03:12:57;98408.94;;;16.18;65.12
75424;BME280;64005;55.160;36.002;2023-07-31T03:15:24;98406.19;;;16.25;65.25
75424;BME280;64005;55.160;36.002;2023-07-31T03:18:03;98405.81;;;16.30;64.72
75424;BME280;64005;55.160;36.002;2023-07-31T03:20:30;98404.69;;;16.35;65.09
75424;BME280;64005;55.160;36.002;2023-07-31T03:22:59;98411.94;;;16.39;65.08
75424;BME280;64005;55.160;36.002;2023-07-31T03:25:57;98411.94;;;16.43;64.79
75424;BME280;64005;55.160;36.002;2023-07-31T03:28:25;98409.19;;;16.50;65.28
75424;BME280;64005;55.160;36.002;2023-07-31T03:30:53;98414.06;;;16.56;65.23
75424;BME280;64005;55.160;36.002;2023-07-31T03:33:20;98406.84;;;16.59;65.18
75424;BME280;64005;55.160;36.002;2023-07-31T03:39:16;98418.56;;;16.64;65.20
75424;BME280;64005;55.160;36.002;2023-07-31T03:44:54;98416.19;;;16.70;64.90
75424;BME280;64005;55.160;36.002;2023-07-31T03:47:21;98427.03;;;16.72;65.02
75424;BME280;64005;55.160;36.002;2023-07-31T03:49:54;98418.19;;;16.69;65.16
75424;BME280;64005;55.160;36.002;2023-07-31T03:52:55;98417.00;;;16.71;65.70
75424;BME280;64005;55.160;36.002;2023-07-31T03:59:02;98418.09;;;17.24;67.75
75424;BME280;64005;55.160;36.002;2023-07-31T04:01:48;98420.69;;;17.65;68.04
75424;BME280;64005;55.160;36.002;2023-07-31T04:04:15;98428.44;;;18.07;68.03
75424;BME280;64005;55.160;36.002;2023-07-31T04:06:43;98422.41;;;18.37;68.02
75424;BME280;64005;55.160;36.002;2023-07-31T04:09:10;98432.50;;;18.59;67.71
75424;BME280;64005;55.160;36.002;2023-07-31T04:23:14;98417.97;;;18.89;65.28
75424;BME280;64005;55.160;36.002;2023-07-31T04:25:41;98424.03;;;18.94;65.26
75424;BME280;64005;55.160;36.002;2023-07-31T04:28:09;98420.78;;;18.99;64.97
75424;BME280;64005;55.160;36.002;2023-07-31T04:30:53;98430.03;;;19.03;64.80
75424;BME280;64005;55.160;36.002;2023-07-31T05:02:17;98442.88;;;20.13;64.95
75424;BME280;64005;55.160;36.002;2023-07-31T05:15:06;98438.38;;;20.74;64.50
75424;BME280;64005;55.160;36.002;2023-07-31T05:17:43;98438.28;;;20.85;64.10
75424;BME280;64005;55.160;36.002;2023-07-31T05:20:43;98440.56;;;21.00;64.40
75424;BME280;64005;55.160;36.002;2023-07-31T05:23:10;98447.69;;;21.16;64.21
75424;BME280;64005;55.160;36.002;2023-07-31T05:25:44;98446.38;;;21.27;63.82
75424;BME280;64005;55.160;36.002;2023-07-31T10:49:20;98514.59;;;26.75;44.28
75424;BME280;64005;55.160;36.002;2023-07-31T10:59:00;98508.47;;;26.89;44.21
75424;BME280;64005;55.160;36.002;2023-07-31T12:12:19;98499.19;;;26.73;43.72
75424;BME280;64005;55.160;36.002;2023-07-31T14:55:10;98447.09;;;27.97;41.65
75424;BME280;64005;55.160;36.002;2023-07-31T15:01:20;98457.25;;;27.77;42.74
75424;BME280;64005;55.160;36.002;2023-07-31T15:03:48;98456.91;;;27.75;42.30
75424;BME280;64005;55.160;36.002;2023-07-31T15:10:06;98445.50;;;27.40;42.14
75424;BME280;64005;55.160;36.002;2023-07-31T15:12:39;98449.19;;;27.28;42.38
75424;BME280;64005;55.160;36.002;2023-07-31T15:15:31;98453.34;;;27.14;42.51
75424;BME280;64005;55.160;36.002;2023-07-31T15:18:04;98452.13;;;27.03;42.66
75424;BME280;64005;55.160;36.002;2023-07-31T15:59:07;98428.97;;;27.35;43.54
75424;BME280;64005;55.160;36.002;2023-07-31T16:01:34;98431.81;;;27.35;43.30
75424;BME280;64005;55.160;36.002;2023-07-31T16:11:03;98438.97;;;27.18;43.33
75424;BME280;64005;55.160;36.002;2023-07-31T16:16:50;98438.09;;;26.96;43.48
75424;BME280;64005;55.160;36.002;2023-07-31T16:19:27;98449.38;;;26.86;43.36
75424;BME280;64005;55.160;36.002;2023-07-31T16:21:54;98449.63;;;26.79;43.98
75424;BME280;64005;55.160;36.002;2023-07-31T16:27:50;98443.50;;;26.56;44.23
75424;BME280;64005;55.160;36.002;2023-07-31T16:31:13;98446.38;;;26.43;44.16
75424;BME280;64005;55.160;36.002;2023-07-31T16:37:23;98454.06;;;26.17;45.61
75424;BME280;64005;55.160;36.002;2023-07-31T16:39:51;98451.88;;;26.08;46.17
75424;BME280;64005;55.160;36.002;2023-07-31T16:42:18;98454.50;;;26.03;46.56
75424;BME280;64005;55.160;36.002;2023-07-31T16:48:27;98456.19;;;25.88;47.32
75424;BME280;64005;55.160;36.002;2023-07-31T16:51:14;98462.00;;;25.84;46.51
75424;BME280;64005;55.160;36.002;2023-07-31T17:52:28;98498.13;;;21.92;48.93
75424;BME280;64005;55.160;36.002;2023-07-31T17:54:55;98497.09;;;21.79;49.83
75424;BME280;64005;55.160;36.002;2023-07-31T17:57:23;98502.06;;;21.68;50.01
75424;BME280;64005;55.160;36.002;2023-07-31T18:00:11;98498.19;;;21.55;49.53
75424;BME280;64005;55.160;36.002;2023-07-31T18:02:38;98502.34;;;21.43;50.16
75424;BME280;64005;55.160;36.002;2023-07-31T18:05:18;98508.16;;;21.32;50.31
75424;BME280;64005;55.160;36.002;2023-07-31T18:08:03;98497.34;;;21.20;50.31
75424;BME280;64005;55.160;36.002;2023-07-31T18:10:57;98504.28;;;21.12;50.38
75424;BME280;64005;55.160;36.002;2023-07-31T18:13:24;98520.50;;;21.05;50.62
75424;BME280;64005;55.160;36.002;2023-07-31T18:15:52;98506.88;;;20.92;51.00
75424;BME280;64005;55.160;36.002;2023-07-31T18:18:19;98503.72;;;20.83;51.07
75424;BME280;64005;55.160;36.002;2023-07-31T18:20:47;98502.59;;;20.74;51.15
75424;BME280;64005;55.160;36.002;2023-07-31T18:23:16;98506.28;;;20.63;51.53
75424;BME280;64005;55.160;36.002;2023-07-31T18:25:46;98497.13;;;20.49;51.68
75424;BME280;64005;55.160;36.002;2023-07-31T18:28:14;98506.06;;;20.40;51.79
75424;BME280;64005;55.160;36.002;2023-07-31T18:30:57;98512.16;;;20.32;51.61
75424;BME280;64005;55.160;36.002;2023-07-31T18:36:02;98504.63;;;20.07;52.09
75424;BME280;64005;55.160;36.002;2023-07-31T18:38:32;98505.47;;;20.01;52.19
75424;BME280;64005;55.160;36.002;2023-07-31T18:41:00;98505.50;;;19.94;52.44
75424;BME280;64005;55.160;36.002;2023-07-31T18:43:27;98509.16;;;19.83;52.65
75424;BME280;64005;55.160;36.002;2023-07-31T18:45:55;98516.03;;;19.79;52.58
75424;BME280;64005;55.160;36.002;2023-07-31T18:48:29;98520.09;;;19.71;52.89
75424;BME280;64005;55.160;36.002;2023-07-31T18:50:56;98525.78;;;19.64;52.86
75424;BME280;64005;55.160;36.002;2023-07-31T18:53:24;98516.53;;;19.56;53.08
75424;BME280;64005;55.160;36.002;2023-07-31T18:55:54;98520.19;;;19.46;53.12
75424;BME280;64005;55.160;36.002;2023-07-31T18:58:21;98516.56;;;19.38;53.18
75424;BME280;64005;55.160;36.002;2023-07-31T19:00:49;98514.94;;;19.30;53.47
75424;BME280;64005;55.160;36.002;2023-07-31T19:03:16;98525.84;;;19.25;53.35
75424;BME280;64005;55.160;36.002;2023-07-31T19:05:43;98523.84;;;19.18;53.54
75424;BME280;64005;55.160;36.002;2023-07-31T19:08:11;98531.09;;;19.12;53.74
75424;BME280;64005;55.160;36.002;2023-07-31T19:10:39;98521.44;;;19.02;54.08
75424;BME280;64005;55.160;36.002;2023-07-31T19:13:08;98520.63;;;18.95;54.26
75424;BME280;64005;55.160;36.002;2023-07-31T19:15:36;98519.03;;;18.90;54.35
75424;BME280;64005;55.160;36.002;2023-07-31T19:18:03;98525.06;;;18.85;54.39
75424;BME280;64005;55.160;36.002;2023-07-31T19:20:31;98530.69;;;18.82;54.49
75424;BME280;64005;55.160;36.002;2023-07-31T19:22:58;98525.88;;;18.75;54.61
75424;BME280;64005;55.160;36.002;2023-07-31T19:25:27;98527.09;;;18.67;54.53
75424;BME280;64005;55.160;36.002;2023-07-31T19:27:55;98517.84;;;18.59;54.77
75424;BME280;64005;55.160;36.002;2023-07-31T19:30:24;98527.44;;;18.55;55.09
75424;BME280;64005;55.160;36.002;2023-07-31T19:32:59;98531.84;;;18.49;54.99
75424;BME280;64005;55.160;36.002;2023-07-31T19:35:56;98535.88;;;18.44;54.46
75424;BME280;64005;55.160;36.002;2023-07-31T19:38:27;98535.47;;;18.42;55.12
75424;BME280;64005;55.160;36.002;2023-07-31T19:40:57;98528.63;;;18.36;55.26
75424;BME280;64005;55.160;36.002;2023-07-31T19:43:26;98528.22;;;18.31;54.91
75424;BME280;64005;55.160;36.002;2023-07-31T19:48:47;98528.97;;;18.13;55.50
75424;BME280;64005;55.160;36.002;2023-07-31T19:51:14;98531.81;;;18.13;55.53
75424;BME280;64005;55.160;36.002;2023-07-31T19:54:04;98534.97;;;18.08;55.14
75424;BME280;64005;55.160;36.002;2023-07-31T19:56:42;98534.19;;;18.01;55.45
75424;BME280;64005;55.160;36.002;2023-07-31T19:59:39;98531.34;;;17.97;55.32
75424;BME280;64005;55.160;36.002;2023-07-31T20:04:44;98533.72;;;17.88;55.81
75424;BME280;64005;55.160;36.002;2023-07-31T20:07:22;98531.69;;;17.88;55.79
75424;BME280;64005;55.160;36.002;2023-07-31T20:09:50;98536.50;;;17.84;55.76
75424;BME280;64005;55.160;36.002;2023-07-31T20:12:22;98543.31;;;17.76;55.83
75424;BME280;64005;55.160;36.002;2023-07-31T20:14:51;98542.50;;;17.76;56.25
75424;BME280;64005;55.160;36.002;2023-07-31T20:17:20;98526.41;;;17.73;56.12
75424;BME280;64005;55.160;36.002;2023-07-31T20:19:49;98526.00;;;17.67;56.29
75424;BME280;64005;55.160;36.002;2023-07-31T20:22:16;98529.59;;;17.64;56.49
75424;BME280;64005;55.160;36.002;2023-07-31T20:24:44;98537.22;;;17.64;56.60
75424;BME280;64005;55.160;36.002;2023-07-31T20:27:27;98534.78;;;17.62;56.33
75424;BME280;64005;55.160;36.002;2023-07-31T20:29:55;98533.22;;;17.61;56.75
75424;BME280;64005;55.160;36.002;2023-07-31T20:32:35;98542.81;;;17.60;56.67
75424;BME280;64005;55.160;36.002;2023-07-31T20:35:04;98537.16;;;17.57;56.83
75424;BME280;64005;55.160;36.002;2023-07-31T20:37:32;98536.34;;;17.53;56.91
75424;BME280;64005;55.160;36.002;2023-07-31T20:43:22;98537.50;;;17.44;56.85
75424;BME280;64005;55.160;36.002;2023-07-31T20:45:50;98531.88;;;17.41;57.15
75424;BME280;64005;55.160;36.002;2023-07-31T20:51:31;98530.19;;;17.33;57.14
75424;BME280;64005;55.160;36.002;2023-07-31T20:54:01;98531.81;;;17.34;57.38
75424;BME280;64005;55.160;36.002;2023-07-31T20:56:28;98531.00;;;17.33;57.24
75424;BME280;64005;55.160;36.002;2023-07-31T20:58:56;98525.75;;;17.28;57.45
75424;BME280;64005;55.160;36.002;2023-07-31T21:01:24;98530.16;;;17.29;57.47
75424;BME280;64005;55.160;36.002;2023-07-31T21:03:51;98526.13;;;17.23;57.41
75424;BME280;64005;55.160;36.002;2023-07-31T21:06:19;98520.88;;;17.18;57.33
75424;BME280;64005;55.160;36.002;2023-07-31T21:08:48;98536.97;;;17.21;57.58
75424;BME280;64005;55.160;36.002;2023-07-31T21:11:16;98526.50;;;17.18;57.68
75424;BME280;64005;55.160;36.002;2023-07-31T21:13:43;98524.88;;;17.17;57.84
75424;BME280;64005;55.160;36.002;2023-07-31T21:16:14;98532.91;;;17.15;57.87
75424;BME280;64005;55.160;36.002;2023-07-31T21:18:58;98522.81;;;17.11;57.53
75424;BME280;64005;55.160;36.002;2023-07-31T21:21:44;98527.25;;;17.08;57.54
75424;BME280;64005;55.160;36.002;2023-07-31T21:24:13;98525.63;;;17.07;58.12
75424;BME280;64005;55.160;36.002;2023-07-31T21:26:41;98534.06;;;17.07;58.01
75424;BME280;64005;55.160;36.002;2023-07-31T21:29:09;98532.00;;;17.04;58.06
75424;BME280;64005;55.160;36.002;2023-07-31T21:31:49;98532.38;;;16.99;58.13
75424;BME280;64005;55.160;36.002;2023-07-31T21:34:17;98533.94;;;16.96;58.12
75424;BME280;64005;55.160;36.002;2023-07-31T21:36:44;98529.53;;;16.95;58.45
75424;BME280;64005;55.160;36.002;2023-07-31T21:39:14;98529.50;;;16.92;58.61
75424;BME280;64005;55.160;36.002;2023-07-31T21:41:42;98517.88;;;16.93;58.48
75424;BME280;64005;55.160;36.002;2023-07-31T21:44:09;98526.69;;;16.92;58.75
75424;BME280;64005;55.160;36.002;2023-07-31T21:46:51;98518.66;;;16.87;58.29
75424;BME280;64005;55.160;36.002;2023-07-31T21:49:18;98518.59;;;16.80;57.33
75424;BME280;64005;55.160;36.002;2023-07-31T21:51:46;98520.53;;;16.76;58.83
75424;BME280;64005;55.160;36.002;2023-07-31T21:54:16;98521.34;;;16.73;58.90
75424;BME280;64005;55.160;36.002;2023-07-31T21:56:43;98512.09;;;16.72;58.82
75424;BME280;64005;55.160;36.002;2023-07-31T21:59:11;98515.28;;;16.71;58.95
75424;BME280;64005;55.160;36.002;2023-07-31T22:01:39;98513.69;;;16.69;59.01
75424;BME280;64005;55.160;36.002;2023-07-31T22:04:06;98510.06;;;16.69;58.87
75424;BME280;64005;55.160;36.002;2023-07-31T22:06:54;98516.91;;;16.68;58.50
75424;BME280;64005;55.160;36.002;2023-07-31T22:09:23;98508.03;;;16.66;59.08
75424;BME280;64005;55.160;36.002;2023-07-31T22:11:50;98510.44;;;16.64;59.12
75424;BME280;64005;55.160;36.002;2023-07-31T22:14:18;98513.63;;;16.62;59.09
75424;BME280;64005;55.160;36.002;2023-07-31T22:16:45;98508.41;;;16.61;59.21
75424;BME280;64005;55.160;36.002;2023-07-31T22:19:13;98505.50;;;16.54;59.29
75424;BME280;64005;55.160;36.002;2023-07-31T22:21:40;98510.69;;;16.52;59.30
75424;BME280;64005;55.160;36.002;2023-07-31T22:24:20;98512.69;;;16.48;59.09
75424;BME280;64005;55.160;36.002;2023-07-31T22:26:49;98506.63;;;16.46;59.51
75424;BME280;64005;55.160;36.002;2023-07-31T22:29:16;98502.59;;;16.43;59.42
75424;BME280;64005;55.160;36.002;2023-07-31T22:32:05;98500.56;;;16.40;59.13
75424;BME280;64005;55.160;36.002;2023-07-31T22:34:32;98502.50;;;16.36;59.51
75424;BME280;64005;55.160;36.002;2023-07-31T22:37:01;98510.91;;;16.33;59.59
75424;BME280;64005;55.160;36.002;2023-07-31T22:39:29;98502.03;;;16.27;59.45
75424;BME280;64005;55.160;36.002;2023-07-31T22:41:57;98509.22;;;16.21;59.86
75424;BME280;64005;55.160;36.002;2023-07-31T22:44:25;98504.41;;;16.21;59.73
75424;BME280;64005;55.160;36.002;2023-07-31T22:46:52;98497.13;;;16.17;59.71
75424;BME280;64005;55.160;36.002;2023-07-31T22:49:26;98502.28;;;16.11;60.05
75424;BME280;64005;55.160;36.002;2023-07-31T22:51:53;98506.72;;;16.16;59.82
75424;BME280;64005;55.160;36.002;2023-07-31T22:54:21;98504.31;;;16.14;59.94
75424;BME280;64005;55.160;36.002;2023-07-31T22:56:48;98503.91;;;16.12;59.93
75424;BME280;64005;55.160;36.002;2023-07-31T22:59:17;98511.88;;;16.10;60.08
75424;BME280;64005;55.160;36.002;2023-07-31T23:01:45;98505.09;;;16.11;60.03
75424;BME280;64005;55.160;36.002;2023-07-31T23:04:12;98503.47;;;16.10;59.97
75424;BME280;64005;55.160;36.002;2023-07-31T23:06:40;98497.81;;;16.07;60.25
75424;BME280;64005;55.160;36.002;2023-07-31T23:09:07;98505.81;;;16.05;60.22
75424;BME280;64005;55.160;36.002;2023-07-31T23:11:35;98501.00;;;16.05;60.20
75424;BME280;64005;55.160;36.002;2023-07-31T23:14:02;98490.59;;;16.06;60.25
75424;BME280;64005;55.160;36.002;2023-07-31T23:16:31;98507.81;;;16.04;60.12
75424;BME280;64005;55.160;36.002;2023-07-31T23:18:59;98511.41;;;16.01;60.15
75424;BME280;64005;55.160;36.002;2023-07-31T23:21:26;98506.91;;;15.97;60.42
75424;BME280;64005;55.160;36.002;2023-07-31T23:23:56;98514.88;;;15.91;60.64
75424;BME280;64005;55.160;36.002;2023-07-31T23:26:24;98512.44;;;15.86;60.67
75424;BME280;64005;55.160;36.002;2023-07-31T23:28:51;98508.78;;;15.82;60.46
75424;BME280;64005;55.160;36.002;2023-07-31T23:31:19;98508.34;;;15.80;60.72
75424;BME280;64005;55.160;36.002;2023-07-31T23:33:47;98516.75;;;15.80;60.63
75424;BME280;64005;55.160;36.002;2023-07-31T23:36:15;98510.72;;;15.78;60.61
75424;BME280;64005;55.160;36.002;2023-07-31T23:39:04;98503.09;;;15.75;60.27
75424;BME280;64005;55.160;36.002;2023-07-31T23:41:31;98504.66;;;15.72;60.67
75424;BME280;64005;55.160;36.002;2023-07-31T23:43:59;98510.25;;;15.72;60.62
75424;BME280;64005;55.160;36.002;2023-07-31T23:46:27;98513.44;;;15.71;60.76
75424;BME280;64005;55.160;36.002;2023-07-31T23:48:56;98515.03;;;15.68;60.84
75424;BME280;64005;55.160;36.002;2023-07-31T23:51:23;98513.78;;;15.66;60.81
75424;BME280;64005;55.160;36.002;2023-07-31T23:53:51;98513.34;;;15.64;60.96
75424;BME280;64005;55.160;36.002;2023-07-31T23:56:18;98509.72;;;15.63;60.81
75424;BME280;64005;55.160;36.002;2023-07-31T23:58:46;98518.16;;;15.63;61.05
